Aviation Digital Data Service (ADDS)

Output produced by METARs form (1546 UTC 28 June 2017)
found at http://www.aviationweather.gov/adds/metars/
 
LWOH 281530Z 20006KT 9999 FEW040 28/11 Q1013
TAF LWOH 281430Z 2815/2915 18008KT CAVOK
       
LWSK 281530Z 26004KT 9999 FEW043 35/14 Q1007 NOSIG
TAF LWSK 281430Z 2815/2915 VRB02KT CAVOK
       
LWOH 281530Z 20006KT 9999 FEW040 28/11 Q1013
TAF LWOH 281430Z 2815/2915 18008KT CAVOK
       
LWSK 281530Z 26004KT 9999 FEW043 35/14 Q1007 NOSIG
TAF LWSK 281430Z 2815/2915 VRB02KT CAVOK